createdAt,value
2022-11-15T00:01:29.514Z,16.40
2022-11-15T00:04:14.821Z,16.17
2022-11-15T00:07:00.178Z,17.92
2022-11-15T00:09:46.242Z,17.10
2022-11-15T00:12:31.390Z,17.63
2022-11-15T00:15:16.837Z,17.10
2022-11-15T00:18:02.134Z,17.60
2022-11-15T00:20:47.295Z,17.40
2022-11-15T00:23:33.876Z,15.73
2022-11-15T00:26:19.287Z,16.45
2022-11-15T00:29:04.225Z,14.77
2022-11-15T00:31:49.259Z,15.05
2022-11-15T00:34:34.453Z,16.45
2022-11-15T00:37:19.752Z,15.48
2022-11-15T00:40:05.379Z,16.73
2022-11-15T00:42:50.452Z,15.65
2022-11-15T00:45:35.914Z,13.02
2022-11-15T00:48:21.226Z,17.02
2022-11-15T00:51:06.463Z,12.98
2022-11-15T00:53:51.985Z,14.57
2022-11-15T00:56:37.141Z,15.23
2022-11-15T00:59:22.366Z,13.55
2022-11-15T01:02:07.633Z,11.45
2022-11-15T01:04:52.837Z,14.75
2022-11-15T01:07:38.156Z,12.55
2022-11-15T01:10:24.278Z,13.07
2022-11-15T01:13:09.597Z,12.35
2022-11-15T01:15:54.830Z,14.68
2022-11-15T01:18:41.445Z,12.48
2022-11-15T01:21:26.896Z,12.95
2022-11-15T01:24:13.969Z,14.32
2022-11-15T01:26:58.868Z,12.27
2022-11-15T01:29:44.012Z,13.50
2022-11-15T01:32:29.390Z,12.95
2022-11-15T01:35:14.590Z,10.88
2022-11-15T01:37:59.918Z,18.30
2022-11-15T01:40:45.386Z,16.63
2022-11-15T01:43:33.720Z,11.18
2022-11-15T01:46:22.329Z,12.88
2022-11-15T01:49:14.005Z,11.30
2022-11-15T01:52:01.529Z,11.13
2022-11-15T01:54:49.982Z,9.85
2022-11-15T01:57:35.637Z,10.38
2022-11-15T02:00:21.068Z,11.32
2022-11-15T02:03:06.237Z,12.13
2022-11-15T02:05:52.250Z,10.68
2022-11-15T02:08:37.858Z,11.55
2022-11-15T02:11:22.973Z,9.45
2022-11-15T02:14:09.874Z,10.23
2022-11-15T02:17:07.193Z,12.13
2022-11-15T02:20:13.810Z,12.05
2022-11-15T02:22:58.802Z,10.43
2022-11-15T02:26:02.111Z,12.55
2022-11-15T02:28:49.944Z,12.32
2022-11-15T02:31:58.608Z,8.35
2022-11-15T02:35:02.711Z,13.52
2022-11-15T02:37:58.386Z,12.45
2022-11-15T02:40:50.811Z,10.77
2022-11-15T02:43:57.428Z,11.82
2022-11-15T02:47:14.288Z,14.82
2022-11-15T02:50:03.140Z,13.00
2022-11-15T02:52:50.262Z,10.33
2022-11-15T02:55:39.794Z,18.40
2022-11-15T03:01:50.598Z,11.85
2022-11-15T03:04:44.241Z,10.55
2022-11-15T03:07:41.784Z,11.07
2022-11-15T03:10:52.716Z,13.15
2022-11-15T03:13:53.282Z,12.18
2022-11-15T03:16:45.018Z,12.40
2022-11-15T03:19:34.229Z,13.68
2022-11-15T03:22:23.250Z,15.32
2022-11-15T03:25:11.858Z,18.20
2022-11-15T03:28:00.981Z,11.73
2022-11-15T03:30:49.879Z,13.98
2022-11-15T03:33:36.154Z,16.00
2022-11-15T03:36:23.787Z,15.65
2022-11-15T03:39:09.836Z,13.88
2022-11-15T03:42:09.357Z,11.85
2022-11-15T03:45:12.513Z,15.27
2022-11-15T03:48:11.842Z,14.63
2022-11-15T03:53:42.543Z,16.27
2022-11-15T03:56:27.693Z,12.13
2022-11-15T03:59:13.004Z,11.88
2022-11-15T04:01:58.047Z,11.02
2022-11-15T04:04:43.128Z,12.18
2022-11-15T04:07:28.442Z,13.93
2022-11-15T04:10:14.380Z,13.02
2022-11-15T04:12:59.538Z,16.15
2022-11-15T04:15:44.751Z,15.13
2022-11-15T04:18:29.988Z,11.85
2022-11-15T04:21:33.919Z,17.95
2022-11-15T04:24:19.187Z,14.77
2022-11-15T04:27:04.559Z,13.93
2022-11-15T04:29:49.814Z,14.35
2022-11-15T04:32:35.090Z,16.05
2022-11-15T04:35:20.332Z,15.95
2022-11-15T04:38:08.767Z,16.63
2022-11-15T04:40:53.652Z,17.15
2022-11-15T04:43:39.021Z,14.68
2022-11-15T04:46:25.542Z,18.88
2022-11-15T04:49:10.400Z,16.33
2022-11-15T04:51:55.805Z,15.90
2022-11-15T04:54:43.055Z,15.02
2022-11-15T04:57:28.149Z,18.67
2022-11-15T05:00:16.042Z,16.52
2022-11-15T05:03:19.839Z,15.57
2022-11-15T05:06:05.185Z,20.55
2022-11-15T05:08:50.786Z,15.93
2022-11-15T05:11:36.128Z,20.73
2022-11-15T05:14:21.448Z,18.73
2022-11-15T05:17:06.779Z,16.73
2022-11-15T05:19:52.953Z,16.20
2022-11-15T05:22:38.427Z,17.00
2022-11-15T05:25:23.885Z,19.80
2022-11-15T05:28:09.243Z,16.52
2022-11-15T05:30:54.698Z,19.48
2022-11-15T05:33:41.460Z,17.02
2022-11-15T05:36:33.333Z,17.65
2022-11-15T05:39:18.490Z,17.05
2022-11-15T05:42:09.040Z,20.92
2022-11-15T05:44:54.316Z,19.58
2022-11-15T05:47:40.917Z,19.95
2022-11-15T05:50:26.456Z,19.42
2022-11-15T05:53:15.621Z,19.38
2022-11-15T05:56:01.001Z,20.95
2022-11-15T05:58:46.500Z,18.52
2022-11-15T06:01:32.160Z,20.75
2022-11-15T06:04:17.206Z,22.15
2022-11-15T06:07:03.051Z,21.52
2022-11-15T06:09:48.008Z,22.23
2022-11-15T06:12:33.084Z,20.52
2022-11-15T06:15:18.287Z,18.33
2022-11-15T06:18:03.784Z,18.88
2022-11-15T06:20:49.414Z,19.63
2022-11-15T06:23:35.769Z,20.25
2022-11-15T06:26:21.079Z,19.02
2022-11-15T06:29:06.588Z,18.05
2022-11-15T06:31:52.214Z,20.60
2022-11-15T06:34:37.463Z,17.65
2022-11-15T06:37:22.923Z,20.63
2022-11-15T06:40:10.005Z,36.78
2022-11-15T06:43:00.392Z,24.13
2022-11-15T06:45:45.750Z,20.70
2022-11-15T06:48:32.664Z,20.23
2022-11-15T06:51:18.151Z,19.08
2022-11-15T06:54:03.791Z,17.52
2022-11-15T06:56:48.960Z,20.63
2022-11-15T06:59:37.820Z,20.50
2022-11-15T07:02:25.679Z,15.38
2022-11-15T07:05:12.176Z,20.33
2022-11-15T07:07:58.983Z,22.67
2022-11-15T07:10:43.932Z,22.13
2022-11-15T07:13:34.670Z,17.92
2022-11-15T07:16:20.039Z,20.75
2022-11-15T07:19:06.288Z,17.33
2022-11-15T07:21:51.792Z,18.80
2022-11-15T07:24:37.243Z,17.13
2022-11-15T07:27:22.794Z,19.13
2022-11-15T07:30:08.551Z,18.30
2022-11-15T07:33:01.380Z,17.75
2022-11-15T07:35:49.396Z,14.13
2022-11-15T07:38:42.203Z,16.60
2022-11-15T07:41:27.714Z,14.75
2022-11-15T07:44:12.939Z,16.20
2022-11-15T07:46:59.196Z,12.90
2022-11-15T07:49:44.382Z,12.32
2022-11-15T07:52:29.567Z,15.30
2022-11-15T07:55:15.068Z,16.25
2022-11-15T07:58:05.059Z,11.85
2022-11-15T08:00:50.114Z,13.43
2022-11-15T08:03:36.612Z,15.25
2022-11-15T08:06:21.859Z,18.17
2022-11-15T08:09:07.452Z,13.90
2022-11-15T08:11:52.936Z,12.30
2022-11-15T08:14:38.427Z,11.32
2022-11-15T08:17:25.185Z,15.18
2022-11-15T08:20:11.152Z,13.48
2022-11-15T08:22:58.041Z,12.68
2022-11-15T08:25:43.467Z,9.35
2022-11-15T08:28:28.780Z,9.25
2022-11-15T08:31:18.972Z,12.23
2022-11-15T08:34:05.183Z,10.55
2022-11-15T08:36:50.612Z,7.60
2022-11-15T08:39:36.144Z,8.40
2022-11-15T08:42:21.645Z,7.22
2022-11-15T08:45:08.288Z,7.28
2022-11-15T08:47:54.686Z,6.35
2022-11-15T08:50:40.391Z,9.88
2022-11-15T08:53:25.396Z,6.00
2022-11-15T08:56:13.231Z,5.68
2022-11-15T08:58:58.269Z,7.68
2022-11-15T09:01:43.439Z,5.15
2022-11-15T09:04:28.843Z,3.47
2022-11-15T09:07:16.298Z,5.63
2022-11-15T09:10:02.810Z,5.30
2022-11-15T09:12:49.525Z,3.72
2022-11-15T09:15:35.146Z,2.90
2022-11-15T09:18:23.268Z,3.75
2022-11-15T09:21:08.672Z,6.68
2022-11-15T09:23:53.804Z,4.25
2022-11-15T09:26:39.451Z,4.10
2022-11-15T09:29:24.511Z,2.17
2022-11-15T09:32:10.665Z,2.92
2022-11-15T09:34:55.791Z,3.33
2022-11-15T09:37:41.587Z,2.47
2022-11-15T09:40:27.357Z,4.57
2022-11-15T09:43:29.553Z,4.10
2022-11-15T09:46:14.828Z,5.32
2022-11-15T09:49:15.838Z,4.88
2022-11-15T09:51:54.942Z,2.53
2022-11-15T09:54:56.834Z,3.50
2022-11-15T09:57:40.920Z,3.97
2022-11-15T10:03:19.138Z,1.85
2022-11-15T10:05:51.957Z,4.70
2022-11-15T10:08:49.633Z,2.88
2022-11-15T10:11:37.265Z,1.90
2022-11-15T10:14:14.291Z,3.80
2022-11-15T10:16:47.075Z,4.20
2022-11-15T10:19:24.690Z,2.35
2022-11-15T10:22:05.789Z,2.80
2022-11-15T10:24:38.097Z,3.40
2022-11-15T10:27:12.971Z,5.80
2022-11-15T10:29:50.605Z,2.67
2022-11-15T10:32:20.492Z,3.55
2022-11-15T10:34:49.455Z,2.55
2022-11-15T10:37:29.133Z,3.50
2022-11-15T10:40:07.420Z,3.08
2022-11-15T10:42:34.416Z,2.30
2022-11-15T10:45:00.955Z,3.72
2022-11-15T10:47:38.992Z,3.88
2022-11-15T10:50:27.133Z,2.17
2022-11-15T10:52:54.602Z,4.95
2022-11-15T10:55:26.277Z,1.88
2022-11-15T10:57:57.752Z,1.92
2022-11-15T11:00:33.557Z,1.17
2022-11-15T11:03:09.645Z,1.20
2022-11-15T11:05:42.897Z,2.08
2022-11-15T11:08:15.524Z,2.53
2022-11-15T11:11:04.002Z,2.15
2022-11-15T11:13:39.272Z,2.08
2022-11-15T11:16:15.212Z,2.00
2022-11-15T11:19:03.501Z,1.70
2022-11-15T11:21:41.211Z,1.67
2022-11-15T11:24:29.192Z,2.25
2022-11-15T11:27:03.934Z,2.10
2022-11-15T11:29:50.635Z,2.08
2022-11-15T11:32:28.133Z,3.20
2022-11-15T11:35:15.474Z,4.18
2022-11-15T11:37:51.364Z,2.75
2022-11-15T11:40:45.212Z,2.72
2022-11-15T11:43:31.630Z,1.90
2022-11-15T11:46:27.532Z,2.00
2022-11-15T11:49:02.642Z,2.47
2022-11-15T11:51:38.342Z,1.63
2022-11-15T11:54:20.393Z,8.65
2022-11-15T11:56:46.977Z,2.75
2022-11-15T11:59:28.541Z,1.52
2022-11-15T12:01:55.639Z,2.92
2022-11-15T12:04:30.667Z,1.10
2022-11-15T12:07:00.681Z,2.17
2022-11-15T12:09:42.826Z,4.00
2022-11-15T12:12:28.670Z,2.25
2022-11-15T12:15:16.752Z,4.03
2022-11-15T12:17:43.715Z,2.20
2022-11-15T12:20:25.225Z,2.72
2022-11-15T12:23:05.942Z,1.45
2022-11-15T12:25:48.055Z,2.60
2022-11-15T12:28:26.644Z,3.70
2022-11-15T12:31:04.688Z,2.50
2022-11-15T12:33:39.258Z,3.83
2022-11-15T12:36:27.671Z,4.10
2022-11-15T12:38:59.901Z,1.58
2022-11-15T12:41:29.216Z,1.63
2022-11-15T12:43:56.719Z,2.85
2022-11-15T12:46:45.218Z,2.53
2022-11-15T12:49:31.852Z,2.40
2022-11-15T12:51:58.308Z,1.80
2022-11-15T12:54:24.877Z,1.50
2022-11-15T12:57:03.819Z,2.05
2022-11-15T12:59:49.242Z,2.50
2022-11-15T13:02:37.067Z,2.65
2022-11-15T13:05:23.359Z,2.08
2022-11-15T13:07:50.007Z,1.67
2022-11-15T13:10:16.641Z,1.90
2022-11-15T13:12:46.259Z,1.48
2022-11-15T13:15:12.816Z,1.92
2022-11-15T13:17:46.370Z,2.50
2022-11-15T13:20:15.333Z,2.65
2022-11-15T13:23:05.636Z,1.33
2022-11-15T13:25:58.404Z,2.67
2022-11-15T13:28:45.140Z,1.67
2022-11-15T13:31:17.679Z,2.60
2022-11-15T13:33:45.106Z,2.25
2022-11-15T13:36:23.128Z,5.13
2022-11-15T13:39:26.779Z,1.50
2022-11-15T13:41:53.837Z,3.40
2022-11-15T13:44:23.651Z,7.72
2022-11-15T13:47:01.204Z,1.30
2022-11-15T13:49:33.296Z,1.35
2022-11-15T13:52:01.816Z,1.52
2022-11-15T13:54:36.470Z,2.00
2022-11-15T13:57:06.534Z,2.72
2022-11-15T13:59:37.102Z,2.80
2022-11-15T14:02:13.697Z,4.57
2022-11-15T14:04:50.466Z,1.88
2022-11-15T14:07:23.247Z,1.83
2022-11-15T14:09:49.969Z,1.77
2022-11-15T14:12:30.826Z,3.92
2022-11-15T14:15:03.694Z,2.97
2022-11-15T14:17:30.257Z,2.90
2022-11-15T14:19:58.598Z,3.20
2022-11-15T14:22:29.112Z,2.00
2022-11-15T14:25:06.146Z,1.98
2022-11-15T14:27:32.795Z,2.35
2022-11-15T14:29:59.385Z,5.70
2022-11-15T14:32:28.619Z,1.60
2022-11-15T14:35:00.447Z,2.90
2022-11-15T14:37:32.393Z,2.45
2022-11-15T14:39:59.031Z,1.65
2022-11-15T14:42:26.106Z,2.80
2022-11-15T14:44:52.815Z,1.83
2022-11-15T14:47:19.546Z,2.50
2022-11-15T14:49:46.704Z,3.85
2022-11-15T14:52:32.138Z,2.92
2022-11-15T14:55:00.581Z,3.20
2022-11-15T14:57:27.311Z,4.28
2022-11-15T14:59:53.937Z,3.90
2022-11-15T15:02:23.145Z,3.33
2022-11-15T15:04:50.836Z,5.43
2022-11-15T15:07:18.173Z,3.33
2022-11-15T15:09:45.601Z,3.80
2022-11-15T15:12:18.321Z,1.85
2022-11-15T15:14:45.930Z,2.60
2022-11-15T15:17:12.576Z,1.40
2022-11-15T15:19:39.123Z,2.13
2022-11-15T15:22:06.126Z,3.08
2022-11-15T15:24:33.399Z,2.05
2022-11-15T15:26:59.928Z,2.33
2022-11-15T15:29:26.492Z,4.78
2022-11-15T15:31:53.028Z,3.40
2022-11-15T15:34:19.573Z,2.55
2022-11-15T15:36:46.313Z,3.92
2022-11-15T15:39:13.221Z,4.20
2022-11-15T15:41:39.811Z,3.40
2022-11-15T15:44:06.356Z,2.92
2022-11-15T15:46:35.056Z,5.22
2022-11-15T15:49:01.649Z,3.33
2022-11-15T15:51:28.242Z,4.50
2022-11-15T15:53:58.024Z,5.50
2022-11-15T15:56:24.700Z,4.93
2022-11-15T15:58:53.446Z,4.57
2022-11-15T16:01:20.151Z,4.72
2022-11-15T16:03:46.907Z,7.20
2022-11-15T16:06:36.513Z,7.72
2022-11-15T16:09:20.662Z,7.43
2022-11-15T16:11:48.299Z,6.82
2022-11-15T16:14:14.904Z,4.30
2022-11-15T16:16:41.534Z,7.95
2022-11-15T16:19:11.443Z,3.95
2022-11-15T16:21:38.195Z,4.60
2022-11-15T16:24:05.721Z,5.80
2022-11-15T16:26:35.850Z,8.90
2022-11-15T16:29:02.964Z,6.45
2022-11-15T16:31:30.737Z,5.95
2022-11-15T16:33:57.828Z,8.20
2022-11-15T16:36:38.468Z,4.38
2022-11-15T16:39:20.637Z,5.05
2022-11-15T16:42:20.220Z,4.45
2022-11-15T16:45:41.162Z,4.90
2022-11-15T16:48:43.213Z,5.15
2022-11-15T16:51:22.365Z,3.15
2022-11-15T16:53:50.034Z,4.43
2022-11-15T16:56:25.407Z,5.68
2022-11-15T16:58:59.317Z,6.10
2022-11-15T17:01:46.956Z,5.60
2022-11-15T17:04:20.830Z,7.40
2022-11-15T17:06:49.026Z,5.10
2022-11-15T17:09:25.813Z,5.45
2022-11-15T17:11:54.567Z,5.60
2022-11-15T17:14:25.219Z,4.78
2022-11-15T17:16:57.848Z,4.68
2022-11-15T17:19:24.512Z,6.03
2022-11-15T17:22:01.788Z,5.05
2022-11-15T17:24:37.739Z,7.30
2022-11-15T17:27:08.908Z,5.18
2022-11-15T17:29:54.662Z,4.82
2022-11-15T17:32:53.086Z,6.13
2022-11-15T17:35:41.470Z,9.35
2022-11-15T17:38:38.924Z,5.05
2022-11-15T17:41:37.214Z,4.22
2022-11-15T17:44:27.370Z,6.25
2022-11-15T17:46:56.579Z,8.50
2022-11-15T17:49:28.803Z,4.43
2022-11-15T17:52:01.707Z,3.13
2022-11-15T17:54:41.369Z,6.57
2022-11-15T17:57:27.354Z,7.82
2022-11-15T18:03:12.551Z,3.83
2022-11-15T18:06:24.810Z,3.47
2022-11-15T18:15:36.476Z,2.92
2022-11-15T18:18:36.585Z,6.05
2022-11-15T18:21:51.929Z,4.68
2022-11-15T18:24:52.964Z,3.30
2022-11-15T18:27:49.142Z,7.15
2022-11-15T18:30:29.300Z,3.58
2022-11-15T18:36:50.045Z,4.68
2022-11-15T18:39:52.690Z,3.83
2022-11-15T18:43:02.461Z,3.58
2022-11-15T18:45:56.318Z,3.58
2022-11-15T18:49:07.382Z,3.93
2022-11-15T18:58:57.113Z,7.63
2022-11-15T19:01:58.403Z,9.00
2022-11-15T19:04:27.683Z,5.18
2022-11-15T19:07:09.275Z,6.03
2022-11-15T19:09:46.663Z,6.00
2022-11-15T19:15:35.398Z,5.05
2022-11-15T19:18:06.226Z,4.63
2022-11-15T19:23:44.817Z,4.95
2022-11-15T19:26:36.718Z,3.10
2022-11-15T19:32:22.218Z,3.65
2022-11-15T19:34:55.407Z,5.15
2022-11-15T19:37:34.323Z,4.78
2022-11-15T19:40:13.967Z,4.05
2022-11-15T19:42:55.581Z,5.57
2022-11-15T19:45:42.307Z,6.05
2022-11-15T19:48:31.671Z,4.75
2022-11-15T19:51:44.076Z,5.15
2022-11-15T19:55:03.347Z,3.50
2022-11-15T19:58:14.712Z,4.22
2022-11-15T20:00:54.134Z,5.60
2022-11-15T20:03:34.798Z,3.42
2022-11-15T20:06:19.192Z,5.70
2022-11-15T20:09:11.354Z,4.63
2022-11-15T20:11:47.629Z,4.63
2022-11-15T20:14:35.342Z,4.63
2022-11-15T20:17:14.247Z,5.70
2022-11-15T20:19:57.298Z,6.35
2022-11-15T20:22:37.560Z,4.50
2022-11-15T20:25:18.588Z,3.67
2022-11-15T20:27:45.298Z,6.72
2022-11-15T20:30:14.981Z,4.47
2022-11-15T20:35:08.786Z,6.35
2022-11-15T20:37:35.669Z,5.05
2022-11-15T20:40:02.299Z,4.47
2022-11-15T20:42:31.084Z,4.40
2022-11-15T20:45:01.298Z,4.18
2022-11-15T20:47:36.436Z,7.03
2022-11-15T20:50:42.784Z,3.60
2022-11-15T20:53:35.715Z,4.57
2022-11-15T20:56:33.738Z,5.40
2022-11-15T20:59:05.382Z,4.32
2022-11-15T21:01:52.979Z,4.53
2022-11-15T21:05:03.885Z,6.22
2022-11-15T21:07:44.097Z,4.55
2022-11-15T21:10:30.892Z,3.17
2022-11-15T21:13:00.889Z,3.45
2022-11-15T21:15:36.598Z,4.35
2022-11-15T21:18:16.982Z,4.18
2022-11-15T21:21:37.539Z,3.63
2022-11-15T21:24:22.947Z,4.55
2022-11-15T21:29:54.295Z,6.45
2022-11-15T21:32:44.096Z,6.35
2022-11-15T21:35:48.194Z,4.75
2022-11-15T21:38:47.722Z,5.60
2022-11-15T21:41:28.895Z,5.55
2022-11-15T21:44:20.003Z,3.83
2022-11-15T21:46:46.567Z,3.67
2022-11-15T21:49:13.265Z,4.70
2022-11-15T21:51:40.343Z,3.70
2022-11-15T21:54:06.943Z,4.30
2022-11-15T21:56:33.875Z,3.65
2022-11-15T21:59:00.533Z,2.80
2022-11-15T22:01:46.766Z,3.40
2022-11-15T22:04:14.057Z,4.22
2022-11-15T22:06:40.644Z,3.75
2022-11-15T22:09:07.479Z,5.43
2022-11-15T22:14:35.783Z,5.28
2022-11-15T22:17:04.945Z,6.03
2022-11-15T22:19:31.587Z,5.43
2022-11-15T22:21:58.166Z,3.60
2022-11-15T22:24:24.926Z,4.40
2022-11-15T22:26:51.493Z,4.95
2022-11-15T22:29:18.073Z,3.95
2022-11-15T22:31:44.681Z,2.40
2022-11-15T22:34:11.439Z,3.28
2022-11-15T22:37:13.102Z,4.13
2022-11-15T22:39:31.795Z,4.72
2022-11-15T22:41:59.126Z,4.85
2022-11-15T22:44:25.707Z,6.40
2022-11-15T22:46:52.408Z,4.00
2022-11-15T22:49:18.994Z,6.88
2022-11-15T22:51:45.610Z,4.45
2022-11-15T22:54:12.226Z,4.22
2022-11-15T22:56:38.773Z,4.30
2022-11-15T22:59:05.403Z,4.53
2022-11-15T23:01:32.084Z,4.80
2022-11-15T23:03:58.794Z,3.97
2022-11-15T23:06:25.477Z,4.38
2022-11-15T23:08:52.062Z,6.13
2022-11-15T23:11:37.243Z,4.40
2022-11-15T23:14:03.936Z,4.97
2022-11-15T23:16:36.583Z,7.05
2022-11-15T23:19:08.898Z,4.93
2022-11-15T23:21:59.643Z,4.50
2022-11-15T23:24:26.806Z,4.20
2022-11-15T23:26:55.956Z,4.05
2022-11-15T23:29:25.045Z,6.90
2022-11-15T23:32:11.208Z,5.15
2022-11-15T23:34:40.888Z,6.68
2022-11-15T23:37:09.023Z,5.07
2022-11-15T23:39:35.592Z,5.13
2022-11-15T23:42:08.606Z,8.43
2022-11-15T23:44:35.868Z,6.28
2022-11-15T23:47:02.461Z,7.03
2022-11-15T23:49:29.170Z,6.88
2022-11-15T23:51:55.742Z,5.93
2022-11-15T23:54:22.361Z,4.93
2022-11-15T23:56:48.928Z,4.43
2022-11-15T23:59:17.667Z,5.28
